Time;durP1;ratioP1;P1;durP2;ratioP2;P2;SDS_P1;SDS_P2;PMS_P1;PMS_P2;Temp;Humidity;BMP_temperature;BMP_pressure;BME280_temperature;BME280_humidity;BME280_pressure;Samples;Min_cycle;Max_cycle;Signal;HPM_P1;HPM_P2
2021/08/23 00:01:57;;;;;;;15.50;12.40;;;16.00;99.90;;;;;;5006159;28;20115;-70
2021/08/23 00:04:23;;;;;;;15.38;11.90;;;15.90;99.90;;;;;;5009230;28;20046;-70
2021/08/23 00:06:49;;;;;;;14.80;12.15;;;16.00;99.90;;;;;;5007937;28;20042;-70
2021/08/23 00:09:15;;;;;;;14.50;12.68;;;16.00;99.90;;;;;;5004547;28;20095;-71
2021/08/23 00:11:40;;;;;;;14.88;12.38;;;16.00;99.90;;;;;;4989675;28;20046;-71
2021/08/23 00:14:06;;;;;;;16.27;13.55;;;16.00;99.90;;;;;;4990006;28;20121;-71
2021/08/23 00:16:32;;;;;;;18.15;14.52;;;16.00;99.90;;;;;;4989559;28;20493;-71
2021/08/23 00:18:58;;;;;;;15.68;13.77;;;16.00;99.90;;;;;;5002990;28;20030;-71
2021/08/23 00:21:25;;;;;;;16.98;13.02;;;16.00;99.90;;;;;;5008017;28;20170;-71
2021/08/23 00:24:05;;;;;;;19.02;13.98;;;16.10;99.90;;;;;;5004849;28;20558;-71
2021/08/23 00:26:32;;;;;;;16.33;14.13;;;16.10;99.90;;;;;;5007608;28;20065;-71
2021/08/23 00:28:57;;;;;;;16.02;13.73;;;16.10;99.90;;;;;;5007712;28;20037;-71
2021/08/23 00:31:24;;;;;;;17.77;13.45;;;16.10;99.90;;;;;;5006746;28;20050;-71
2021/08/23 00:33:50;;;;;;;15.57;13.27;;;16.20;99.90;;;;;;5009437;28;20050;-71
2021/08/23 00:36:16;;;;;;;14.63;12.48;;;16.10;99.90;;;;;;5007912;28;20048;-71
2021/08/23 00:38:41;;;;;;;14.68;12.40;;;16.10;99.90;;;;;;5009549;28;20075;-71
2021/08/23 00:41:07;;;;;;;15.88;12.15;;;16.10;99.90;;;;;;5014199;28;20118;-71
2021/08/23 00:43:33;;;;;;;18.45;12.52;;;16.10;99.90;;;;;;5009401;28;20117;-71
2021/08/23 00:46:00;;;;;;;16.60;12.52;;;16.20;99.90;;;;;;5008234;28;20092;-71
2021/08/23 00:48:25;;;;;;;17.30;12.40;;;16.20;99.90;;;;;;5005551;28;20048;-71
2021/08/23 00:50:51;;;;;;;15.52;12.10;;;16.10;99.90;;;;;;5008085;28;20038;-71
2021/08/23 00:53:17;;;;;;;13.05;11.65;;;16.10;99.90;;;;;;5007616;28;20040;-71
2021/08/23 00:55:44;;;;;;;15.43;11.32;;;16.10;99.90;;;;;;5008062;28;20409;-71
2021/08/23 00:58:10;;;;;;;14.73;11.02;;;16.10;99.90;;;;;;5023203;28;20122;-71
2021/08/23 01:00:42;;;;;;;16.92;12.10;;;16.10;99.90;;;;;;5013458;28;20410;-71
2021/08/23 01:03:16;;;;;;;14.85;12.05;;;16.10;99.90;;;;;;5006645;28;20104;-71
2021/08/23 01:05:42;;;;;;;15.15;11.65;;;16.10;99.90;;;;;;5005838;28;20038;-71
2021/08/23 01:08:18;;;;;;;14.32;11.40;;;16.10;99.90;;;;;;5006991;28;20447;-71
2021/08/23 01:10:47;;;;;;;15.95;11.52;;;16.10;99.90;;;;;;5004272;28;20054;-71
2021/08/23 01:13:13;;;;;;;14.80;10.38;;;16.10;99.90;;;;;;5014661;28;20087;-71
2021/08/23 01:15:39;;;;;;;13.98;10.35;;;16.00;99.90;;;;;;5009543;28;20364;-71
2021/08/23 01:18:05;;;;;;;13.65;11.30;;;16.10;99.90;;;;;;5007751;28;20075;-71
2021/08/23 01:20:34;;;;;;;14.35;12.25;;;16.00;99.90;;;;;;5005259;28;20120;-71
2021/08/23 01:23:01;;;;;;;13.45;10.63;;;16.00;99.90;;;;;;5016213;28;20090;-71
2021/08/23 01:25:32;;;;;;;13.60;11.00;;;16.00;99.90;;;;;;5005684;28;20049;-72
2021/08/23 01:28:35;;;;;;;15.35;10.80;;;16.00;99.90;;;;;;5003089;28;20047;-71
2021/08/23 01:31:41;;;;;;;12.65;9.85;;;15.90;99.90;;;;;;5005499;28;20477;-71
2021/08/23 01:34:08;;;;;;;15.65;10.43;;;16.00;99.90;;;;;;5007333;28;20128;-71
2021/08/23 01:36:35;;;;;;;12.95;10.43;;;15.90;99.90;;;;;;5007814;28;20482;-71
2021/08/23 01:39:00;;;;;;;17.25;11.20;;;16.00;99.90;;;;;;5015508;28;20030;-71
2021/08/23 01:41:26;;;;;;;12.80;10.40;;;16.00;99.90;;;;;;5009625;28;20053;-71
2021/08/23 01:43:52;;;;;;;14.38;10.52;;;15.90;99.90;;;;;;5005987;28;20085;-72
2021/08/23 01:46:17;;;;;;;14.95;10.65;;;15.90;99.90;;;;;;5014186;28;20049;-72
2021/08/23 01:48:43;;;;;;;14.07;11.48;;;15.90;99.90;;;;;;5012295;28;20038;-71
2021/08/23 01:51:09;;;;;;;15.93;10.90;;;15.80;99.90;;;;;;5007332;28;20460;-72
2021/08/23 01:53:35;;;;;;;12.73;10.70;;;15.80;99.90;;;;;;5008201;28;20422;-72
2021/08/23 01:56:01;;;;;;;13.35;11.38;;;15.80;99.90;;;;;;5009979;28;20068;-71
2021/08/23 01:58:28;;;;;;;14.80;11.27;;;15.80;99.90;;;;;;5005616;28;20042;-71
2021/08/23 02:00:54;;;;;;;17.42;11.35;;;15.80;99.90;;;;;;4999895;28;20038;-72
2021/08/23 02:03:24;;;;;;;16.07;10.47;;;15.80;99.90;;;;;;5012417;28;20037;-72
2021/08/23 02:05:50;;;;;;;14.05;11.68;;;15.80;99.90;;;;;;5019346;28;20304;-71
2021/08/23 02:08:16;;;;;;;16.20;11.25;;;15.80;99.90;;;;;;5006157;28;20087;-71
2021/08/23 02:10:41;;;;;;;14.02;10.02;;;15.70;99.90;;;;;;5010598;28;20038;-71
2021/08/23 02:13:08;;;;;;;12.98;9.65;;;15.70;99.90;;;;;;5009398;28;20117;-71
2021/08/23 02:15:34;;;;;;;11.20;9.25;;;15.70;99.90;;;;;;5006083;28;20048;-71
2021/08/23 02:17:59;;;;;;;11.30;9.38;;;15.70;99.90;;;;;;5008391;28;20092;-71
2021/08/23 02:20:25;;;;;;;12.63;8.90;;;15.70;99.90;;;;;;5008566;28;20633;-71
2021/08/23 02:22:51;;;;;;;10.90;8.98;;;15.70;99.90;;;;;;5006795;28;20119;-72
2021/08/23 02:25:21;;;;;;;11.30;9.50;;;15.70;99.90;;;;;;5009918;28;20101;-71
2021/08/23 02:27:46;;;;;;;10.77;9.20;;;15.80;99.90;;;;;;5006235;28;20084;-71
2021/08/23 02:30:12;;;;;;;12.18;8.43;;;15.70;99.90;;;;;;5008606;28;20034;-72
2021/08/23 02:32:38;;;;;;;14.10;8.73;;;15.80;99.90;;;;;;5007032;28;20104;-71
2021/08/23 02:35:04;;;;;;;12.07;8.45;;;15.70;99.90;;;;;;5012276;28;20437;-71
2021/08/23 02:37:30;;;;;;;12.13;8.00;;;15.80;99.90;;;;;;5008487;28;20453;-71
2021/08/23 02:39:55;;;;;;;11.73;7.63;;;15.70;99.90;;;;;;5008160;28;20041;-72
2021/08/23 02:42:21;;;;;;;8.68;7.60;;;15.70;99.90;;;;;;5020219;28;20042;-71
2021/08/23 02:44:47;;;;;;;12.30;7.75;;;15.70;99.90;;;;;;5015202;28;20091;-71
2021/08/23 02:47:12;;;;;;;10.68;6.90;;;15.60;99.90;;;;;;5009402;28;20486;-71
2021/08/23 02:49:38;;;;;;;13.93;7.47;;;15.60;99.90;;;;;;5013047;28;20038;-71
2021/08/23 02:52:04;;;;;;;11.82;7.45;;;15.60;99.90;;;;;;5009360;28;20061;-72
2021/08/23 02:54:29;;;;;;;8.63;7.63;;;15.60;99.90;;;;;;5010077;28;20083;-71
2021/08/23 02:56:55;;;;;;;13.10;7.97;;;15.50;99.90;;;;;;5011170;28;20038;-71
2021/08/23 02:59:21;;;;;;;11.23;7.65;;;15.50;99.90;;;;;;5017349;28;20124;-71
2021/08/23 03:01:47;;;;;;;12.68;8.35;;;15.50;99.90;;;;;;5008853;28;20493;-71
2021/08/23 03:04:12;;;;;;;8.73;6.85;;;15.40;99.90;;;;;;5008754;28;20114;-71
2021/08/23 03:06:38;;;;;;;9.55;7.20;;;15.40;99.90;;;;;;5008784;28;20468;-71
2021/08/23 03:09:03;;;;;;;9.80;6.85;;;15.40;99.90;;;;;;5008409;28;20547;-71
2021/08/23 03:11:30;;;;;;;10.65;6.88;;;15.30;99.90;;;;;;5007804;28;20045;-71
2021/08/23 03:13:57;;;;;;;9.48;7.03;;;15.30;99.90;;;;;;5002399;28;20671;-71
2021/08/23 03:16:23;;;;;;;11.32;7.60;;;15.30;99.90;;;;;;5007193;28;20113;-71
2021/08/23 03:18:49;;;;;;;11.15;6.93;;;15.30;99.90;;;;;;5013010;28;20117;-71
2021/08/23 03:21:15;;;;;;;8.20;6.85;;;15.30;99.90;;;;;;5009749;28;20367;-71
2021/08/23 03:23:40;;;;;;;9.75;6.47;;;15.20;99.90;;;;;;5009223;28;20091;-71
2021/08/23 03:26:06;;;;;;;12.57;7.05;;;15.30;99.90;;;;;;5008390;28;20037;-71
2021/08/23 03:28:34;;;;;;;10.63;6.82;;;15.30;99.90;;;;;;5006013;28;20049;-71
2021/08/23 03:31:00;;;;;;;11.43;6.90;;;15.30;99.90;;;;;;5007156;28;20127;-71
2021/08/23 03:33:26;;;;;;;7.53;6.82;;;15.40;99.90;;;;;;5009140;28;20690;-71
2021/08/23 03:35:51;;;;;;;7.95;6.47;;;15.40;99.90;;;;;;5008597;28;20044;-71
2021/08/23 03:38:17;;;;;;;11.20;7.82;;;15.50;99.90;;;;;;5007529;28;20038;-71
2021/08/23 03:40:43;;;;;;;9.93;7.22;;;15.50;99.90;;;;;;5012455;28;20480;-71
2021/08/23 03:43:08;;;;;;;9.82;6.68;;;15.50;99.90;;;;;;5009112;28;20384;-71
2021/08/23 03:45:35;;;;;;;11.23;6.43;;;15.50;99.90;;;;;;5007490;28;20679;-71
2021/08/23 03:48:01;;;;;;;11.18;7.15;;;15.60;99.90;;;;;;5007795;28;20520;-71
2021/08/23 03:50:26;;;;;;;12.82;6.82;;;15.60;99.90;;;;;;5006393;28;20053;-72
2021/08/23 03:52:52;;;;;;;9.15;6.40;;;15.60;99.90;;;;;;5007949;28;20042;-71
2021/08/23 03:55:18;;;;;;;11.73;6.20;;;15.60;99.90;;;;;;5008007;28;20117;-71
2021/08/23 03:57:43;;;;;;;9.32;6.05;;;15.60;99.90;;;;;;5007984;28;20041;-71
2021/08/23 04:00:10;;;;;;;9.82;6.50;;;15.70;99.90;;;;;;5007457;28;20110;-71
2021/08/23 04:02:36;;;;;;;7.82;6.07;;;15.70;99.90;;;;;;5007730;28;20034;-71
2021/08/23 04:05:02;;;;;;;8.88;5.90;;;15.70;99.90;;;;;;5004858;28;20034;-71
2021/08/23 04:07:28;;;;;;;8.48;6.30;;;15.70;99.90;;;;;;5006052;28;20042;-72
2021/08/23 04:09:54;;;;;;;9.70;6.53;;;15.70;99.90;;;;;;5007910;28;20034;-71
2021/08/23 04:12:20;;;;;;;8.27;5.70;;;15.70;99.90;;;;;;5008262;28;20059;-71
2021/08/23 04:14:46;;;;;;;10.73;6.63;;;15.70;99.90;;;;;;5006016;28;20524;-71
2021/08/23 04:17:12;;;;;;;9.80;5.82;;;15.70;99.90;;;;;;4997944;28;20033;-71
2021/08/23 04:19:37;;;;;;;8.63;6.20;;;15.80;99.90;;;;;;5006952;28;20045;-71
2021/08/23 04:22:03;;;;;;;10.52;6.80;;;15.80;99.90;;;;;;5009837;28;20127;-71
2021/08/23 04:24:29;;;;;;;10.65;5.82;;;15.70;99.90;;;;;;5001001;28;20054;-71
2021/08/23 04:26:54;;;;;;;10.60;5.85;;;15.80;99.90;;;;;;5008060;28;20685;-71
2021/08/23 04:29:20;;;;;;;9.35;5.65;;;15.70;99.90;;;;;;5006858;28;20034;-71
2021/08/23 04:31:46;;;;;;;9.50;6.13;;;15.70;99.90;;;;;;5007327;28;20050;-71
2021/08/23 04:34:12;;;;;;;8.40;5.93;;;15.70;99.90;;;;;;5006092;28;20154;-72
2021/08/23 04:36:39;;;;;;;10.10;6.05;;;15.70;99.90;;;;;;5007489;28;20077;-72
2021/08/23 04:39:06;;;;;;;10.02;6.05;;;15.60;99.90;;;;;;5022571;28;20068;-72
2021/08/23 04:41:39;;;;;;;8.68;5.70;;;15.60;99.90;;;;;;5005968;28;20098;-72
2021/08/23 04:44:06;;;;;;;8.90;5.43;;;15.60;99.90;;;;;;5004501;28;20042;-72
2021/08/23 04:46:32;;;;;;;11.57;5.80;;;15.60;99.90;;;;;;5005116;28;20061;-72
2021/08/23 04:48:58;;;;;;;8.35;5.35;;;15.60;99.90;;;;;;5007004;28;20046;-72
2021/08/23 04:51:24;;;;;;;9.43;5.32;;;15.60;99.90;;;;;;5006501;28;20038;-72
2021/08/23 04:53:50;;;;;;;9.27;5.65;;;15.60;99.90;;;;;;5008041;28;20034;-72
2021/08/23 04:56:16;;;;;;;7.70;5.65;;;15.60;99.90;;;;;;5006874;28;20034;-72
2021/08/23 04:58:43;;;;;;;8.60;5.78;;;15.60;99.90;;;;;;5006298;28;20403;-72
2021/08/23 05:01:09;;;;;;;7.32;5.10;;;15.50;99.90;;;;;;5005471;28;20034;-72
2021/08/23 05:03:34;;;;;;;8.95;5.63;;;15.50;99.90;;;;;;5007215;28;20137;-72
2021/08/23 05:06:00;;;;;;;11.25;5.78;;;15.50;99.90;;;;;;5005659;28;20038;-72
2021/08/23 05:08:26;;;;;;;10.93;5.80;;;15.50;99.90;;;;;;5007533;28;20046;-72
2021/08/23 05:10:52;;;;;;;11.55;5.28;;;15.50;99.90;;;;;;4992653;28;20042;-72
2021/08/23 05:13:17;;;;;;;9.73;4.75;;;15.50;99.90;;;;;;5006336;28;20034;-72
2021/08/23 05:15:43;;;;;;;8.13;5.28;;;15.50;99.90;;;;;;5003198;28;20445;-72
2021/08/23 05:18:09;;;;;;;10.65;4.88;;;15.60;99.90;;;;;;5005495;28;20045;-72
2021/08/23 05:20:35;;;;;;;6.45;4.45;;;15.60;99.90;;;;;;5008079;28;20133;-72
2021/08/23 05:23:01;;;;;;;8.45;4.88;;;15.60;99.90;;;;;;5013012;28;20038;-72
2021/08/23 05:25:26;;;;;;;8.63;4.75;;;15.70;99.90;;;;;;5005838;28;20049;-72
2021/08/23 05:27:52;;;;;;;8.38;4.70;;;15.70;99.90;;;;;;5007731;28;20036;-72
2021/08/23 05:30:18;;;;;;;6.32;5.10;;;15.80;99.90;;;;;;5008559;28;20061;-73
2021/08/23 05:32:44;;;;;;;6.22;4.60;;;15.90;99.90;;;;;;5007554;28;20042;-72
2021/08/23 05:35:11;;;;;;;8.10;4.88;;;15.90;99.90;;;;;;5008773;28;20072;-72
2021/08/23 05:37:36;;;;;;;7.65;5.15;;;15.90;99.90;;;;;;5006272;28;20077;-72
2021/08/23 05:40:03;;;;;;;8.68;4.60;;;16.00;99.90;;;;;;5012363;28;20069;-73
2021/08/23 05:42:30;;;;;;;7.88;4.57;;;16.10;99.90;;;;;;5009563;28;20808;-73
2021/08/23 05:44:56;;;;;;;6.90;4.32;;;16.10;99.90;;;;;;5011259;28;20048;-73
2021/08/23 05:47:22;;;;;;;7.43;4.57;;;16.10;99.90;;;;;;5001741;28;20052;-72
2021/08/23 05:49:48;;;;;;;10.57;3.83;;;16.40;99.90;;;;;;5016915;28;20034;-73
2021/08/23 05:52:14;;;;;;;4.95;3.92;;;17.10;99.90;;;;;;5005120;28;20063;-72
2021/08/23 05:54:40;;;;;;;5.95;4.28;;;17.40;99.90;;;;;;5010418;28;20150;-73
2021/08/23 05:57:07;;;;;;;7.35;3.60;;;17.50;99.90;;;;;;5014297;28;20042;-72
2021/08/23 05:59:33;;;;;;;6.63;3.70;;;17.50;99.90;;;;;;5013061;28;20042;-72
2021/08/23 06:01:58;;;;;;;9.60;4.00;;;17.30;99.90;;;;;;5042507;28;20483;-72
2021/08/23 06:04:24;;;;;;;6.45;3.85;;;17.20;99.90;;;;;;5012385;28;20419;-72
2021/08/23 06:06:51;;;;;;;7.28;3.80;;;17.20;99.90;;;;;;5027623;28;20528;-72
2021/08/23 06:09:18;;;;;;;7.47;3.80;;;17.00;99.90;;;;;;5012263;28;20121;-72
2021/08/23 06:11:45;;;;;;;5.30;3.33;;;17.10;99.90;;;;;;5014658;28;20038;-72
2021/08/23 06:14:10;;;;;;;8.52;3.90;;;17.10;99.90;;;;;;5010816;28;20041;-72
2021/08/23 06:16:37;;;;;;;7.93;3.90;;;17.00;99.90;;;;;;5012289;28;20072;-72
2021/08/23 06:19:03;;;;;;;8.60;3.80;;;17.00;99.90;;;;;;5010573;28;20038;-72
2021/08/23 06:21:30;;;;;;;6.25;3.72;;;17.10;99.90;;;;;;5011849;28;20034;-72
2021/08/23 06:23:55;;;;;;;8.30;3.65;;;17.10;99.90;;;;;;5011831;28;20046;-72
2021/08/23 06:26:21;;;;;;;8.15;3.70;;;17.20;99.90;;;;;;5011604;28;20049;-72
2021/08/23 06:28:47;;;;;;;7.40;3.90;;;17.30;99.90;;;;;;5011680;28;20042;-72
2021/08/23 06:31:13;;;;;;;7.88;4.00;;;17.50;99.90;;;;;;5010900;28;20046;-72
2021/08/23 06:33:38;;;;;;;5.95;3.30;;;17.80;99.90;;;;;;5008433;28;20049;-72
2021/08/23 06:36:04;;;;;;;6.28;3.00;;;18.70;99.90;;;;;;5000101;28;20047;-72
2021/08/23 06:38:30;;;;;;;6.07;3.28;;;19.50;99.90;;;;;;5007079;28;20057;-72
2021/08/23 06:40:55;;;;;;;7.65;3.15;;;19.80;99.90;;;;;;5024206;28;20026;-72
2021/08/23 06:43:22;;;;;;;4.00;2.72;;;20.00;99.90;;;;;;5007615;28;20073;-72
2021/08/23 06:45:47;;;;;;;6.47;3.22;;;20.30;99.90;;;;;;5019453;28;20476;-72
2021/08/23 06:48:13;;;;;;;4.57;2.92;;;20.70;99.90;;;;;;5024705;28;20043;-72
2021/08/23 06:50:39;;;;;;;6.85;3.05;;;20.60;99.90;;;;;;5009559;28;20038;-72
2021/08/23 06:53:05;;;;;;;6.30;2.60;;;20.90;99.90;;;;;;5011222;28;20030;-72
2021/08/23 06:55:31;;;;;;;5.28;2.88;;;20.90;99.90;;;;;;5011396;28;20057;-72
2021/08/23 06:57:57;;;;;;;6.13;3.03;;;20.80;99.90;;;;;;5013291;28;20046;-72
2021/08/23 07:00:23;;;;;;;7.97;2.70;;;21.20;99.90;;;;;;5009209;28;20418;-72
2021/08/23 07:02:48;;;;;;;6.07;2.53;;;21.90;99.90;;;;;;5006897;28;20483;-72
2021/08/23 07:05:14;;;;;;;6.00;2.92;;;22.00;99.90;;;;;;5010470;28;20083;-72
2021/08/23 07:07:40;;;;;;;6.80;2.65;;;21.10;99.90;;;;;;5009444;28;20034;-71
2021/08/23 07:10:09;;;;;;;3.67;2.65;;;20.10;99.90;;;;;;5005098;28;20588;-72
2021/08/23 07:12:35;;;;;;;7.25;2.70;;;20.20;99.90;;;;;;5009962;28;20042;-71
2021/08/23 07:15:00;;;;;;;6.55;2.60;;;20.00;99.90;;;;;;5005907;28;20049;-71
2021/08/23 07:17:28;;;;;;;6.38;2.80;;;19.60;99.90;;;;;;5005749;28;20053;-72
2021/08/23 07:19:53;;;;;;;7.13;3.13;;;19.20;99.90;;;;;;5009456;28;20399;-72
2021/08/23 07:22:19;;;;;;;4.97;2.50;;;19.80;99.90;;;;;;5007559;28;20153;-72
2021/08/23 07:24:47;;;;;;;4.68;2.58;;;19.70;99.90;;;;;;5005092;28;20124;-72
2021/08/23 07:27:21;;;;;;;4.85;2.63;;;19.40;99.90;;;;;;5005029;28;20046;-71
2021/08/23 07:29:46;;;;;;;6.38;2.50;;;19.10;99.90;;;;;;5006664;28;20083;-71
2021/08/23 07:32:12;;;;;;;4.07;2.40;;;19.50;99.90;;;;;;5004644;28;20077;-72
2021/08/23 07:34:38;;;;;;;5.28;2.45;;;20.40;99.90;;;;;;5009697;28;20033;-71
2021/08/23 07:37:04;;;;;;;5.78;2.17;;;21.20;99.90;;;;;;5007646;28;20036;-72
2021/08/23 07:39:31;;;;;;;5.35;2.50;;;22.20;99.90;;;;;;5007100;28;20113;-72
2021/08/23 07:41:57;;;;;;;4.05;2.45;;;22.70;99.90;;;;;;5006486;28;20121;-71
2021/08/23 07:44:22;;;;;;;3.88;2.55;;;22.30;99.90;;;;;;5005939;28;20042;-71
2021/08/23 07:46:49;;;;;;;6.22;2.20;;;22.00;99.90;;;;;;5007186;28;20105;-72
2021/08/23 07:49:15;;;;;;;4.20;2.47;;;22.40;99.90;;;;;;5023530;28;20159;-71
2021/08/23 07:51:40;;;;;;;3.35;1.98;;;22.60;99.90;;;;;;5002335;28;20115;-71
2021/08/23 07:54:07;;;;;;;4.63;1.88;;;22.50;99.90;;;;;;5031672;28;20494;-70
2021/08/23 07:56:32;;;;;;;3.97;2.05;;;21.60;99.90;;;;;;5007022;28;20034;-71
2021/08/23 07:58:58;;;;;;;4.68;2.17;;;21.50;99.90;;;;;;5003853;28;20528;-72
2021/08/23 08:01:25;;;;;;;3.88;2.33;;;21.50;99.90;;;;;;5006564;28;20065;-71
2021/08/23 08:03:51;;;;;;;4.22;2.08;;;20.30;99.90;;;;;;5013710;28;20363;-71
2021/08/23 08:06:18;;;;;;;4.65;2.30;;;20.20;99.90;;;;;;5008328;28;20417;-71
2021/08/23 08:08:44;;;;;;;4.28;2.15;;;20.00;99.90;;;;;;5008159;28;20048;-71
2021/08/23 08:11:10;;;;;;;4.15;2.42;;;20.00;99.90;;;;;;5030098;28;20581;-71
2021/08/23 08:13:35;;;;;;;2.95;2.15;;;19.80;99.90;;;;;;5008528;28;20034;-71
2021/08/23 08:16:01;;;;;;;3.90;1.90;;;20.10;99.90;;;;;;5005969;28;20091;-71
2021/08/23 08:18:28;;;;;;;4.97;2.08;;;20.10;99.90;;;;;;5004147;28;20038;-71
2021/08/23 08:20:53;;;;;;;5.35;1.70;;;20.00;99.90;;;;;;5003531;28;20045;-71
2021/08/23 08:23:19;;;;;;;3.78;2.03;;;20.20;99.90;;;;;;5005715;28;20108;-72
2021/08/23 08:25:46;;;;;;;4.55;2.38;;;20.40;99.90;;;;;;5006311;28;20044;-71
2021/08/23 08:28:12;;;;;;;4.35;1.85;;;20.30;99.90;;;;;;5004138;28;20041;-71
2021/08/23 08:30:41;;;;;;;5.53;2.10;;;20.30;99.90;;;;;;5007438;28;20048;-71
2021/08/23 08:33:07;;;;;;;4.45;2.10;;;20.50;99.90;;;;;;5006977;28;20046;-71
2021/08/23 08:35:33;;;;;;;4.15;2.00;;;20.50;99.90;;;;;;5007808;28;20048;-71
2021/08/23 08:37:58;;;;;;;3.60;2.08;;;20.40;99.90;;;;;;5003828;28;20046;-71
2021/08/23 08:40:24;;;;;;;3.78;2.20;;;20.00;99.90;;;;;;5007181;28;20113;-71
2021/08/23 08:42:51;;;;;;;5.63;2.17;;;19.80;99.90;;;;;;5003349;28;20458;-71
2021/08/23 08:45:18;;;;;;;4.28;1.70;;;20.00;99.90;;;;;;5006807;28;20410;-71
2021/08/23 08:47:44;;;;;;;4.60;2.10;;;20.00;99.90;;;;;;5016137;23;20061;-71
2021/08/23 08:50:14;;;;;;;4.53;2.38;;;20.20;99.90;;;;;;5021185;28;20044;-71
2021/08/23 08:52:43;;;;;;;2.95;2.10;;;20.00;99.90;;;;;;5023752;28;20041;-71
2021/08/23 08:55:09;;;;;;;4.97;1.85;;;20.00;99.90;;;;;;5002893;28;20029;-71
2021/08/23 08:57:36;;;;;;;4.55;2.10;;;19.70;99.90;;;;;;5023507;28;20530;-71
2021/08/23 09:00:03;;;;;;;5.00;2.03;;;19.80;99.90;;;;;;5025513;28;20034;-71
2021/08/23 09:02:29;;;;;;;5.13;2.10;;;19.90;99.90;;;;;;5025492;28;20042;-71
2021/08/23 09:04:55;;;;;;;1.98;1.45;;;20.20;99.90;;;;;;5024111;28;20083;-72
2021/08/23 09:07:21;;;;;;;4.22;1.45;;;20.30;99.90;;;;;;5031697;28;20033;-71
2021/08/23 09:09:47;;;;;;;4.18;1.70;;;20.60;99.90;;;;;;5030553;28;20437;-71
2021/08/23 09:12:15;;;;;;;4.47;1.60;;;20.90;99.90;;;;;;5032531;28;20052;-72
2021/08/23 09:14:50;;;;;;;4.18;1.70;;;20.70;99.90;;;;;;5027033;28;20092;-71
2021/08/23 09:17:16;;;;;;;2.47;1.77;;;20.70;99.90;;;;;;5012521;28;20049;-71
2021/08/23 09:19:43;;;;;;;3.25;1.50;;;20.70;99.90;;;;;;5030896;28;20041;-71
2021/08/23 09:22:16;;;;;;;4.05;1.50;;;20.70;99.90;;;;;;5075765;28;20451;-71
2021/08/23 09:24:44;;;;;;;2.88;1.30;;;20.70;99.90;;;;;;5030786;28;20049;-71
2021/08/23 09:27:32;;;;;;;2.05;1.25;;;20.70;99.90;;;;;;5010569;28;20049;-71
2021/08/23 09:30:01;;;;;;;2.97;1.08;;;20.50;99.80;;;;;;5025217;28;20030;-71
2021/08/23 09:32:29;;;;;;;2.45;1.30;;;20.90;99.90;;;;;;5027347;28;20042;-72
2021/08/23 09:35:04;;;;;;;4.82;1.30;;;21.10;99.90;;;;;;5029221;28;20442;-72
2021/08/23 09:37:32;;;;;;;2.00;1.10;;;21.10;99.90;;;;;;5029296;28;20108;-71
2021/08/23 09:40:14;;;;;;;2.95;1.10;;;21.00;99.20;;;;;;5026557;28;20037;-72
2021/08/23 09:42:41;;;;;;;1.65;1.17;;;20.90;99.90;;;;;;5049084;28;20494;-72
2021/08/23 09:45:17;;;;;;;2.25;1.30;;;20.60;99.90;;;;;;5029470;28;20041;-71
2021/08/23 09:47:43;;;;;;;1.83;1.10;;;20.70;99.90;;;;;;5026108;28;20046;-71
2021/08/23 09:50:16;;;;;;;2.63;1.10;;;20.50;97.00;;;;;;5028360;28;20378;-71
2021/08/23 09:52:42;;;;;;;4.68;1.23;;;20.50;99.90;;;;;;5028944;28;20045;-70
2021/08/23 09:55:09;;;;;;;1.73;1.20;;;20.30;98.50;;;;;;5029909;28;20042;-71
2021/08/23 09:57:43;;;;;;;2.15;1.27;;;20.50;99.90;;;;;;5029388;28;20113;-71
2021/08/23 10:00:13;;;;;;;3.38;1.30;;;20.50;99.90;;;;;;5025452;28;20081;-74
2021/08/23 10:02:46;;;;;;;1.70;1.13;;;20.40;97.60;;;;;;5023672;28;20030;-75
2021/08/23 10:05:15;;;;;;;2.58;1.20;;;20.60;97.70;;;;;;5011011;28;20037;-75
2021/08/23 10:07:41;;;;;;;1.58;1.08;;;20.60;99.20;;;;;;5029046;28;20082;-75
2021/08/23 10:10:08;;;;;;;3.13;1.17;;;20.70;99.00;;;;;;5027219;28;20038;-76
2021/08/23 10:12:34;;;;;;;3.08;1.08;;;20.50;99.70;;;;;;5025524;28;20045;-74
2021/08/23 10:15:00;;;;;;;1.42;1.30;;;20.60;97.00;;;;;;5012513;28;20583;-74
2021/08/23 10:17:35;;;;;;;2.45;1.20;;;20.80;99.40;;;;;;5028522;28;20095;-74
2021/08/23 10:20:02;;;;;;;2.20;1.17;;;21.00;99.90;;;;;;5029561;28;20045;-75
2021/08/23 10:22:29;;;;;;;2.80;1.45;;;20.70;97.40;;;;;;5015918;28;20041;-71
2021/08/23 10:24:55;;;;;;;1.60;1.30;;;20.70;97.40;;;;;;5018307;28;20072;-70
2021/08/23 10:27:24;;;;;;;2.58;1.15;;;20.60;96.90;;;;;;5025153;28;20061;-67
2021/08/23 10:29:50;;;;;;;1.65;1.30;;;20.60;97.30;;;;;;5024884;28;20034;-67
2021/08/23 10:32:17;;;;;;;2.38;1.20;;;20.60;98.00;;;;;;5020964;28;20033;-67
2021/08/23 10:34:43;;;;;;;2.75;1.17;;;20.80;98.70;;;;;;5027420;28;20065;-67
2021/08/23 10:37:23;;;;;;;2.72;1.52;;;21.00;98.50;;;;;;5025357;28;20076;-67
2021/08/23 10:40:03;;;;;;;2.60;1.50;;;21.00;97.60;;;;;;5029063;28;20037;-67
2021/08/23 10:42:39;;;;;;;1.30;1.00;;;20.80;96.20;;;;;;5007274;28;20049;-67
2021/08/23 10:45:12;;;;;;;1.52;1.30;;;20.80;95.20;;;;;;5029416;28;20033;-67
2021/08/23 10:47:38;;;;;;;2.80;1.55;;;20.80;95.90;;;;;;5024462;28;20054;-67
2021/08/23 10:50:07;;;;;;;2.92;1.60;;;20.80;95.90;;;;;;5002364;28;20490;-67
2021/08/23 10:52:35;;;;;;;1.98;1.25;;;20.80;95.10;;;;;;5023869;28;20038;-67
2021/08/23 10:55:05;;;;;;;3.20;1.40;;;20.80;95.10;;;;;;5026844;28;20086;-67
2021/08/23 10:57:33;;;;;;;;;;;20.60;95.50;;;;;;5021055;28;20046;-67
2021/08/23 11:00:10;;;;;;;2.40;1.20;;;21.00;99.90;;;;;;5018441;28;19921;-67
2021/08/23 11:02:38;;;;;;;2.05;1.17;;;21.00;96.00;;;;;;5003805;28;20153;-67
2021/08/23 11:05:09;;;;;;;1.95;1.63;;;21.30;98.90;;;;;;5049655;28;20493;-67
2021/08/23 11:07:38;;;;;;;4.35;1.83;;;21.50;94.30;;;;;;5051339;28;20106;-66
2021/08/23 11:10:15;;;;;;;1.92;1.25;;;21.50;93.60;;;;;;5026587;28;20041;-67
2021/08/23 11:12:56;;;;;;;2.70;1.60;;;21.50;94.90;;;;;;5013112;28;20033;-67
2021/08/23 11:15:24;;;;;;;2.30;1.48;;;21.50;93.70;;;;;;5015400;28;20044;-67
2021/08/23 11:17:55;;;;;;;3.15;1.45;;;21.60;95.40;;;;;;5025439;28;20030;-67
2021/08/23 11:20:25;;;;;;;1.88;1.35;;;21.50;94.00;;;;;;5028989;28;20503;-67
2021/08/23 11:22:55;;;;;;;2.42;1.33;;;21.80;96.40;;;;;;5027905;28;20140;-67
2021/08/23 11:25:34;;;;;;;1.27;1.17;;;21.80;93.70;;;;;;5020972;28;20045;-67
2021/08/23 11:28:03;;;;;;;2.08;1.13;;;21.50;92.30;;;;;;5027483;28;20382;-67
2021/08/23 11:30:50;;;;;;;2.30;1.20;;;21.80;96.70;;;;;;5022076;28;20045;-67
2021/08/23 11:33:32;;;;;;;1.40;1.15;;;21.60;92.20;;;;;;5014263;28;20088;-71
2021/08/23 11:36:02;;;;;;;1.85;1.33;;;21.80;94.20;;;;;;5028641;28;20410;-72
2021/08/23 11:38:30;;;;;;;2.38;1.30;;;22.00;95.50;;;;;;5029328;28;20128;-71
2021/08/23 11:40:56;;;;;;;1.80;1.30;;;21.80;92.60;;;;;;5011525;28;20049;-71
2021/08/23 11:43:29;;;;;;;1.30;1.17;;;21.90;95.40;;;;;;5029349;28;20437;-71
2021/08/23 11:45:57;;;;;;;1.65;1.23;;;22.10;97.30;;;;;;5026403;28;20501;-71
2021/08/23 11:48:24;;;;;;;1.50;1.40;;;22.00;95.40;;;;;;5023090;28;20499;-71
2021/08/23 11:50:50;;;;;;;2.25;1.35;;;22.10;95.10;;;;;;5028858;28;20041;-71
2021/08/23 11:53:16;;;;;;;1.70;1.23;;;22.40;97.80;;;;;;5026524;28;20100;-71
2021/08/23 11:55:46;;;;;;;2.22;1.20;;;22.50;94.80;;;;;;5025413;28;20401;-71
2021/08/23 11:58:20;;;;;;;2.20;1.42;;;22.50;96.70;;;;;;5026000;28;20105;-71
2021/08/23 12:01:03;;;;;;;2.67;1.13;;;21.90;94.40;;;;;;5025719;28;20033;-71
2021/08/23 12:03:30;;;;;;;2.80;1.08;;;22.00;95.20;;;;;;5024055;28;20094;-68
2021/08/23 12:06:07;;;;;;;2.05;1.42;;;22.00;96.30;;;;;;5023828;28;20044;-67
2021/08/23 12:08:37;;;;;;;3.03;1.20;;;22.20;96.30;;;;;;5021920;28;20030;-67
2021/08/23 12:11:09;;;;;;;2.47;1.20;;;22.30;96.70;;;;;;5017899;28;20124;-67
2021/08/23 12:13:37;;;;;;;2.22;1.25;;;22.40;96.80;;;;;;5025805;28;20049;-67
2021/08/23 12:16:06;;;;;;;1.65;1.30;;;22.40;96.30;;;;;;5017258;28;20040;-67
2021/08/23 12:18:37;;;;;;;2.50;1.38;;;22.40;96.60;;;;;;5011989;28;21606;-67
2021/08/23 12:21:19;;;;;;;2.03;1.23;;;22.80;98.10;;;;;;5017392;28;20397;-67
2021/08/23 12:23:48;;;;;;;1.35;1.20;;;22.60;95.60;;;;;;5093390;28;20046;-67
2021/08/23 12:26:15;;;;;;;2.67;1.20;;;22.70;97.00;;;;;;4999920;28;20034;-67
2021/08/23 12:28:51;;;;;;;3.35;1.30;;;22.80;96.60;;;;;;5027793;28;20494;-71
2021/08/23 12:31:18;;;;;;;3.58;1.17;;;23.20;97.50;;;;;;5023518;28;20033;-71
2021/08/23 12:33:44;;;;;;;1.83;1.27;;;23.10;96.90;;;;;;5011471;28;20432;-71
2021/08/23 12:36:11;;;;;;;2.30;1.20;;;23.10;95.90;;;;;;5018087;28;20078;-71
2021/08/23 12:38:37;;;;;;;3.53;1.40;;;22.80;93.10;;;;;;5013486;28;20052;-70
2021/08/23 12:41:02;;;;;;;1.33;1.20;;;22.60;93.80;;;;;;5020909;28;20195;-71
2021/08/23 12:43:29;;;;;;;2.45;1.27;;;22.60;95.40;;;;;;5009204;28;20720;-71
2021/08/23 12:45:55;;;;;;;2.72;1.13;;;22.70;95.50;;;;;;5018668;28;20053;-71